Time;durP1;ratioP1;P1;durP2;ratioP2;P2;SDS_P1;SDS_P2;PMS_P1;PMS_P2;Temp;Humidity;BMP_temperature;BMP_pressure;BME280_temperature;BME280_humidity;BME280_pressure;Samples;Min_cycle;Max_cycle;Signal;HPM_P1;HPM_P2
2022/11/19 00:01:20;;;;;;;;;;;1.50;99.90;;;;;;4949150;28;172532;-72
2022/11/19 00:03:47;;;;;;;;;;;1.40;99.90;;;;;;4994782;28;19929;-73
2022/11/19 00:06:14;;;;;;;;;;;1.40;99.90;;;;;;4926159;28;215375;-72
2022/11/19 00:08:40;;;;;;;;;;;1.40;99.90;;;;;;4979306;28;19927;-72
2022/11/19 00:11:07;;;;;;;;;;;1.40;99.90;;;;;;4959565;28;222605;-71
2022/11/19 00:13:34;;;;;;;;;;;1.40;99.90;;;;;;4981041;28;19926;-72
2022/11/19 00:16:01;;;;;;;;;;;1.40;99.90;;;;;;4955956;28;207582;-73
2022/11/19 00:18:28;;;;;;;;;;;1.40;99.90;;;;;;4982084;28;19926;-72
2022/11/19 00:20:55;;;;;;;;;;;1.50;99.90;;;;;;4947132;28;199619;-72
2022/11/19 00:23:22;;;;;;;;;;;1.40;99.90;;;;;;4987958;28;19930;-72
2022/11/19 00:25:47;;;;;;;;;;;1.50;99.90;;;;;;4925134;28;210235;-74
2022/11/19 00:28:13;;;;;;;;;;;1.40;99.90;;;;;;4953989;28;19931;-72
2022/11/19 00:30:39;;;;;;;;;;;1.40;99.90;;;;;;4924376;28;167915;-73
2022/11/19 00:33:05;;;;;;;;;;;1.40;99.90;;;;;;4963990;28;19929;-72
2022/11/19 00:35:31;;;;;;;;;;;1.40;99.90;;;;;;4938696;28;165777;-73
2022/11/19 00:37:57;;;;;;;;;;;1.40;99.90;;;;;;4992676;28;20067;-73
2022/11/19 00:40:23;;;;;;;;;;;1.30;99.90;;;;;;4930829;28;205464;-72
2022/11/19 00:45:34;;;;;;;;;;;1.30;99.90;;;;;;4929238;28;209721;-72
2022/11/19 00:47:59;;;;;;;;;;;1.30;99.90;;;;;;4988457;28;19936;-73
2022/11/19 00:50:25;;;;;;;;;;;1.30;99.90;;;;;;4955925;28;186464;-73
2022/11/19 00:52:51;;;;;;;;;;;1.20;99.90;;;;;;4999125;28;19926;-73
2022/11/19 00:55:17;;;;;;;;;;;1.20;99.90;;;;;;4919111;28;209897;-73
2022/11/19 00:57:44;;;;;;;;;;;1.20;99.90;;;;;;4960831;28;20299;-73
2022/11/19 01:00:10;;;;;;;;;;;1.20;99.90;;;;;;4908069;28;209735;-74
2022/11/19 01:02:36;;;;;;;;;;;1.10;99.90;;;;;;4959276;28;20399;-73
2022/11/19 01:05:03;;;;;;;;;;;1.10;99.90;;;;;;4925722;28;224836;-73
2022/11/19 01:07:29;;;;;;;;;;;1.10;99.90;;;;;;4980788;28;19930;-73
2022/11/19 01:09:54;;;;;;;;;;;1.00;99.90;;;;;;4957896;28;206980;-72
2022/11/19 01:12:20;;;;;;;;;;;1.00;99.90;;;;;;4980116;28;183854;-72
2022/11/19 01:14:46;;;;;;;;;;;0.90;99.90;;;;;;4994615;28;19934;-72
2022/11/19 01:17:13;;;;;;;;;;;0.90;99.90;;;;;;4948100;28;209581;-73
2022/11/19 01:19:38;;;;;;;;;;;0.80;99.90;;;;;;4981442;28;19926;-71
2022/11/19 01:22:04;;;;;;;;;;;0.80;99.90;;;;;;4966841;28;157298;-73
2022/11/19 01:24:30;;;;;;;;;;;0.70;99.90;;;;;;5010610;28;20365;-73
2022/11/19 01:26:56;;;;;;;;;;;0.70;99.90;;;;;;4955403;28;133031;-72
2022/11/19 01:29:22;;;;;;;;;;;0.60;99.90;;;;;;4970334;28;20340;-72
2022/11/19 01:31:48;;;;;;;;;;;0.60;99.90;;;;;;4949931;28;198773;-73
2022/11/19 01:34:14;;;;;;;;;;;0.50;99.90;;;;;;4962902;28;19976;-72
2022/11/19 01:36:40;;;;;;;;;;;0.50;99.90;;;;;;4955377;28;215793;-72
2022/11/19 01:39:06;;;;;;;;;;;0.40;99.90;;;;;;4969738;28;19926;-72
2022/11/19 01:41:32;;;;;;;;;;;0.40;99.90;;;;;;4953200;28;237544;-72
2022/11/19 01:44:05;;;;;;;;;;;0.40;99.90;;;;;;4972947;28;19933;-72
2022/11/19 01:46:32;;;;;;;;;;;0.40;99.90;;;;;;4965371;28;139402;-72
2022/11/19 01:49:07;;;;;;;;;;;0.40;99.90;;;;;;4970493;28;19930;-72
2022/11/19 01:51:35;;;;;;;;;;;0.40;99.90;;;;;;4965265;28;144064;-72
2022/11/19 01:54:09;;;;;;;;;;;0.30;99.90;;;;;;5000145;28;19926;-72
2022/11/19 01:56:35;;;;;;;;;;;0.30;99.90;;;;;;4965971;28;206145;-72
2022/11/19 01:59:04;;;;;;;;;;;0.40;99.90;;;;;;4993387;28;19953;-72
2022/11/19 02:01:30;;;;;;;;;;;0.40;99.90;;;;;;4951392;28;188464;-72
2022/11/19 02:03:59;;;;;;;;;;;0.40;99.90;;;;;;4971236;28;19926;-72
2022/11/19 02:06:27;;;;;;;;;;;0.30;99.90;;;;;;4937848;28;207115;-72
2022/11/19 02:08:53;;;;;;;;;;;0.30;99.90;;;;;;4975327;28;19922;-72
2022/11/19 02:11:24;;;;;;;;;;;0.30;99.90;;;;;;4959977;28;193084;-72
2022/11/19 02:14:05;;;;;;;;;;;0.30;99.90;;;;;;4999198;28;19934;-71
2022/11/19 02:16:48;;;;;;;;;;;0.30;99.90;;;;;;4975292;28;124536;-72
2022/11/19 02:19:38;;;;;;;;;;;0.30;99.90;;;;;;4991327;28;19936;-71
2022/11/19 02:22:07;;;;;;;;;;;0.20;99.90;;;;;;4917839;28;194911;-73
2022/11/19 02:24:42;;;;;;;;;;;0.20;99.90;;;;;;4971080;28;19930;-73
2022/11/19 02:27:22;;;;;;;;;;;0.20;99.90;;;;;;4919815;28;206466;-71
2022/11/19 02:29:54;;;;;;;;;;;0.10;99.90;;;;;;4965415;28;19923;-71
2022/11/19 02:32:26;;;;;;;;;;;0.10;99.90;;;;;;4892499;28;222339;-71
2022/11/19 02:34:56;;;;;;;;;;;0.10;99.90;;;;;;4966651;28;19923;-72
2022/11/19 02:37:37;;;;;;;;;;;0.00;99.90;;;;;;4899366;28;119145;-72
2022/11/19 02:40:08;;;;;;;;;;;0.00;99.90;;;;;;4929258;28;164171;-72
2022/11/19 02:43:12;;;;;;;;;;;0.00;99.90;;;;;;4945390;28;19951;-72
2022/11/19 02:45:41;;;;;;;;;;;0.00;99.90;;;;;;4857907;29;210138;-73
2022/11/19 02:48:20;;;;;;;;;;;0.00;99.90;;;;;;4910680;29;19923;-71
2022/11/19 02:50:50;;;;;;;;;;;-0.10;99.90;;;;;;4880153;29;87125;-72
2022/11/19 02:53:16;;;;;;;;;;;-0.10;99.90;;;;;;4902259;29;19927;-72
2022/11/19 02:56:09;;;;;;;;;;;-0.10;99.90;;;;;;4878158;29;183928;-71
2022/11/19 03:06:45;;;;;;;;;;;-0.20;99.90;;;;;;4926471;28;153412;-71
2022/11/19 03:09:11;;;;;;;;;;;-0.20;99.90;;;;;;4921013;28;19933;-70
2022/11/19 03:11:37;;;;;;;;;;;-0.20;99.90;;;;;;4929618;28;201553;-71
2022/11/19 03:17:09;;;;;;;;;;;-0.30;99.90;;;;;;4944161;28;159545;-70
2022/11/19 03:19:49;;;;;;;;;;;-0.30;99.90;;;;;;4998081;28;19926;-70
2022/11/19 03:22:27;;;;;;;;;;;-0.40;99.90;;;;;;4965714;28;199265;-71
2022/11/19 03:24:53;;;;;;;;;;;-0.40;99.90;;;;;;5001065;28;213426;-71
2022/11/19 03:27:23;;;;;;;;;;;-0.50;99.90;;;;;;4943910;28;31017;-71
2022/11/19 03:29:52;;;;;;;;;;;-0.50;99.90;;;;;;4984350;28;19926;-71
2022/11/19 03:32:22;;;;;;;;;;;-0.50;99.90;;;;;;4964796;28;248608;-70
2022/11/19 03:34:50;;;;;;;;;;;-0.50;99.90;;;;;;5000685;28;19922;-70
2022/11/19 03:37:18;;;;;;;;;;;-0.60;99.90;;;;;;4965825;28;210527;-70
2022/11/19 03:39:44;;;;;;;;;;;-0.60;99.90;;;;;;5003464;28;19930;-71
2022/11/19 03:42:11;;;;;;;;;;;-0.60;99.90;;;;;;4949470;28;210358;-70
2022/11/19 03:44:40;;;;;;;;;;;-0.60;99.90;;;;;;4999758;28;20401;-70
2022/11/19 03:47:13;;;;;;;;;;;-0.70;99.90;;;;;;4949161;28;173397;-70
2022/11/19 03:49:41;;;;;;;;;;;-0.70;99.90;;;;;;4972788;28;19937;-69
2022/11/19 03:52:10;;;;;;;;;;;-0.70;99.90;;;;;;4968740;28;184846;-69
2022/11/19 03:54:37;;;;;;;;;;;-0.70;99.90;;;;;;4968655;28;19933;-70
2022/11/19 03:57:04;;;;;;;;;;;-0.70;99.90;;;;;;4959157;28;209917;-70
2022/11/19 03:59:30;;;;;;;;;;;-0.80;99.90;;;;;;4970585;28;20387;-70
2022/11/19 04:01:59;;;;;;;;;;;-0.80;99.90;;;;;;4936533;28;210020;-70
2022/11/19 04:04:34;;;;;;;;;;;-0.80;99.90;;;;;;4980795;28;19922;-70
2022/11/19 04:07:00;;;;;;;;;;;-0.80;99.90;;;;;;4945117;28;210903;-70
2022/11/19 04:09:26;;;;;;;;;;;-0.90;99.90;;;;;;5003446;28;19933;-70
2022/11/19 04:11:52;;;;;;;;;;;-0.90;99.90;;;;;;4939118;28;206738;-70
2022/11/19 04:14:18;;;;;;;;;;;-0.90;99.90;;;;;;4970451;28;19922;-69
2022/11/19 04:16:44;;;;;;;;;;;-0.90;99.90;;;;;;4955543;28;213672;-69
2022/11/19 04:19:10;;;;;;;;;;;-0.90;99.90;;;;;;4975595;28;19922;-69
2022/11/19 04:21:36;;;;;;;;;;;-1.00;99.90;;;;;;4961605;28;176016;-69
2022/11/19 04:24:02;;;;;;;;;;;-1.00;99.90;;;;;;4971307;28;19933;-69
2022/11/19 04:26:28;;;;;;;;;;;-1.00;99.90;;;;;;4956017;28;164697;-69
2022/11/19 04:28:54;;;;;;;;;;;-1.00;99.90;;;;;;4971401;28;19926;-70
2022/11/19 04:31:20;;;;;;;;;;;-1.00;99.90;;;;;;4943327;28;209456;-70
2022/11/19 04:33:46;;;;;;;;;;;-1.00;99.90;;;;;;4977846;28;19928;-69
2022/11/19 04:36:12;;;;;;;;;;;-1.00;99.90;;;;;;4946623;28;207140;-69
2022/11/19 04:38:38;;;;;;;;;;;-1.00;99.90;;;;;;4983663;28;20036;-69
2022/11/19 04:41:04;;;;;;;;;;;-1.00;99.90;;;;;;4945651;28;140121;-69
2022/11/19 04:43:30;;;;;;;;;;;-1.10;99.90;;;;;;4987927;28;19933;-69
2022/11/19 04:45:56;;;;;;;;;;;-1.10;99.90;;;;;;4950955;28;152049;-69
2022/11/19 04:48:22;;;;;;;;;;;-1.10;99.90;;;;;;4988023;28;19922;-70
2022/11/19 04:50:48;;;;;;;;;;;-1.10;99.90;;;;;;4939328;28;211642;-69
2022/11/19 04:53:14;;;;;;;;;;;-1.10;99.90;;;;;;4973382;28;21324;-69
2022/11/19 04:55:40;;;;;;;;;;;-1.10;99.90;;;;;;4912476;28;221514;-69
2022/11/19 04:58:06;;;;;;;;;;;-1.10;99.90;;;;;;4978758;28;19930;-68
2022/11/19 05:00:32;;;;;;;;;;;-1.10;99.90;;;;;;4915369;28;208125;-68
2022/11/19 05:02:58;;;;;;;;;;;-1.20;99.90;;;;;;4968968;28;21631;-69
2022/11/19 05:05:24;;;;;;;;;;;-1.20;99.90;;;;;;4929392;28;149004;-69
2022/11/19 05:07:50;;;;;;;;;;;-1.20;99.90;;;;;;4991344;28;19918;-69
2022/11/19 05:10:16;;;;;;;;;;;-1.20;99.90;;;;;;4920784;28;206744;-70
2022/11/19 05:12:41;;;;;;;;;;;-1.20;99.90;;;;;;4958516;28;19923;-69
2022/11/19 05:15:08;;;;;;;;;;;-1.20;99.90;;;;;;4901312;28;221772;-68
2022/11/19 05:17:34;;;;;;;;;;;-1.20;99.90;;;;;;4994794;28;19937;-68
2022/11/19 05:20:00;;;;;;;;;;;-1.20;99.90;;;;;;4972328;28;222913;-68
2022/11/19 05:22:26;;;;;;;;;;;-1.20;99.90;;;;;;4976681;28;19930;-69
2022/11/19 05:24:52;;;;;;;;;;;-1.30;99.90;;;;;;4995689;28;20417;-69
2022/11/19 05:27:17;;;;;;;;;;;-1.30;99.90;;;;;;4944589;28;210509;-69
2022/11/19 05:29:43;;;;;;;;;;;-1.30;99.90;;;;;;4995045;28;19929;-69
2022/11/19 05:32:10;;;;;;;;;;;-1.30;99.90;;;;;;4949889;28;212991;-69
2022/11/19 05:34:36;;;;;;;;;;;-1.30;99.90;;;;;;4972082;28;20383;-69
2022/11/19 05:37:02;;;;;;;;;;;-1.30;99.90;;;;;;4967391;28;211976;-69
2022/11/19 05:39:28;;;;;;;;;;;-1.40;99.90;;;;;;5002342;28;19933;-69
2022/11/19 05:41:54;;;;;;;;;;;-1.40;99.90;;;;;;4969672;28;209354;-69
2022/11/19 05:44:20;;;;;;;;;;;-1.40;99.90;;;;;;4975472;28;19995;-69
2022/11/19 05:46:46;;;;;;;;;;;-1.40;99.90;;;;;;4950875;28;205837;-69
2022/11/19 05:49:12;;;;;;;;;;;-1.40;99.90;;;;;;4970074;28;19922;-69
2022/11/19 05:51:38;;;;;;;;;;;-1.40;99.90;;;;;;4967910;28;205040;-69
2022/11/19 05:54:04;;;;;;;;;;;-1.50;99.90;;;;;;4972232;28;19922;-69
2022/11/19 05:56:30;;;;;;;;;;;-1.40;99.90;;;;;;4953642;28;207933;-68
2022/11/19 05:58:56;;;;;;;;;;;-1.40;99.90;;;;;;4978893;28;19926;-68
2022/11/19 06:01:26;;;;;;;;;;;-1.50;99.90;;;;;;4972139;28;191588;-69
2022/11/19 06:03:52;;;;;;;;;;;-1.50;99.90;;;;;;4987333;28;19929;-69
2022/11/19 06:06:18;;;;;;;;;;;-1.50;99.90;;;;;;4935507;28;222898;-70
2022/11/19 06:08:44;;;;;;;;;;;-1.50;99.90;;;;;;4978599;28;19930;-69
2022/11/19 06:11:46;;;;;;;;;;;-1.50;99.90;;;;;;4923295;28;227338;-69
2022/11/19 06:13:56;;;;;;;;;;;-1.60;99.90;;;;;;4956491;28;19946;-68
2022/11/19 06:16:22;;;;;;;;;;;-1.50;99.90;;;;;;4928039;28;212847;-68
2022/11/19 06:18:48;;;;;;;;;;;-1.50;99.90;;;;;;4981153;28;20651;-68
2022/11/19 06:21:14;;;;;;;;;;;-1.50;99.90;;;;;;4949267;28;143614;-69
2022/11/19 06:23:40;;;;;;;;;;;-1.60;99.90;;;;;;4975047;28;20430;-69
2022/11/19 06:26:06;;;;;;;;;;;-1.60;99.90;;;;;;4928672;28;213803;-69
2022/11/19 06:28:32;;;;;;;;;;;-1.60;99.90;;;;;;4962211;28;19922;-69
2022/11/19 06:30:58;;;;;;;;;;;-1.60;99.90;;;;;;4932008;28;237443;-69
2022/11/19 06:33:24;;;;;;;;;;;-1.60;99.90;;;;;;4985274;28;19922;-70
2022/11/19 06:35:50;;;;;;;;;;;-1.60;99.90;;;;;;4933455;28;206568;-69
2022/11/19 06:38:16;;;;;;;;;;;-1.60;99.90;;;;;;4982258;28;19930;-70
2022/11/19 06:40:45;;;;;;;;;;;-1.60;99.90;;;;;;4946400;28;193879;-69
2022/11/19 06:43:11;;;;;;;;;;;-1.70;99.90;;;;;;5010370;28;19933;-70
2022/11/19 06:45:37;;;;;;;;;;;-1.70;99.90;;;;;;4965553;28;156396;-69
2022/11/19 06:48:03;;;;;;;;;;;-1.70;99.90;;;;;;4990275;28;20380;-70
2022/11/19 06:50:29;;;;;;;;;;;-1.70;99.90;;;;;;4907682;28;211280;-69
2022/11/19 06:52:55;;;;;;;;;;;-1.70;99.90;;;;;;4960345;28;19926;-69
2022/11/19 06:55:21;;;;;;;;;;;-1.80;99.90;;;;;;4933212;28;194409;-69
2022/11/19 06:57:47;;;;;;;;;;;-1.80;99.90;;;;;;5003254;28;19931;-69
2022/11/19 07:00:14;;;;;;;;;;;-1.80;99.90;;;;;;4939364;28;213383;-69
2022/11/19 07:02:39;;;;;;;;;;;-1.70;99.90;;;;;;5004477;28;19930;-70
2022/11/19 07:05:06;;;;;;;;;;;-1.80;99.90;;;;;;4914006;28;207225;-70
2022/11/19 07:07:32;;;;;;;;;;;-1.80;99.90;;;;;;5012981;28;19922;-70
2022/11/19 07:09:58;;;;;;;;;;;-1.80;99.90;;;;;;4952365;28;215190;-69
2022/11/19 07:12:24;;;;;;;;;;;-1.80;99.90;;;;;;4967135;28;19925;-70
2022/11/19 07:14:50;;;;;;;;;;;-1.80;99.90;;;;;;4965209;28;19933;-70
2022/11/19 07:17:16;;;;;;;;;;;-1.80;99.90;;;;;;4955526;28;157049;-70
2022/11/19 07:19:42;;;;;;;;;;;-1.80;99.90;;;;;;4974195;28;19926;-69
2022/11/19 07:22:08;;;;;;;;;;;-1.80;99.90;;;;;;4933213;28;209441;-70
2022/11/19 07:24:34;;;;;;;;;;;-1.80;99.90;;;;;;4946442;28;19958;-70
2022/11/19 07:27:00;;;;;;;;;;;-1.80;99.90;;;;;;4962460;28;212732;-70
2022/11/19 07:29:26;;;;;;;;;;;-1.80;99.90;;;;;;4968293;28;19926;-70
2022/11/19 07:31:52;;;;;;;;;;;-1.80;99.90;;;;;;4960236;28;212773;-70
2022/11/19 07:34:18;;;;;;;;;;;-1.80;99.90;;;;;;4968254;28;20306;-71
2022/11/19 07:36:45;;;;;;;;;;;-1.80;99.90;;;;;;4947411;28;207304;-69
2022/11/19 07:39:11;;;;;;;;;;;-1.80;99.90;;;;;;4969162;28;19936;-69
2022/11/19 07:44:21;;;;;;;;;;;-1.70;99.90;;;;;;4983213;28;20343;-69
2022/11/19 07:46:47;;;;;;;;;;;-1.70;99.90;;;;;;4930429;28;204289;-68
2022/11/19 07:49:13;;;;;;;;;;;-1.70;99.90;;;;;;4973523;28;19930;-70
2022/11/19 07:51:40;;;;;;;;;;;-1.70;99.90;;;;;;4974417;28;76175;-69
2022/11/19 07:54:08;;;;;;;;;;;-1.70;99.90;;;;;;5000310;28;19930;-69
2022/11/19 07:56:34;;;;;;;;;;;-1.70;99.90;;;;;;4953750;28;198682;-70
2022/11/19 07:59:00;;;;;;;;;;;-1.60;99.90;;;;;;4964944;28;19926;-70
2022/11/19 08:01:26;;;;;;;;;;;-1.70;99.90;;;;;;4943350;28;229355;-70
2022/11/19 08:03:52;;;;;;;;;;;-1.60;99.90;;;;;;4964153;28;19925;-69
2022/11/19 08:06:19;;;;;;;;;;;-1.60;99.90;;;;;;4939184;28;141415;-69
2022/11/19 08:08:45;;;;;;;;;;;-1.60;99.90;;;;;;4976126;28;19930;-69
2022/11/19 08:11:12;;;;;;;;;;;-1.60;99.90;;;;;;4937678;28;217439;-69
2022/11/19 08:13:38;;;;;;;;;;;-1.60;99.90;;;;;;4965955;28;19921;-69
2022/11/19 08:16:06;;;;;;;;;;;-1.50;99.90;;;;;;4941005;28;227905;-68
2022/11/19 08:18:32;;;;;;;;;;;-1.50;99.90;;;;;;4988740;28;20292;-68
2022/11/19 08:21:05;;;;;;;;;;;-1.50;99.90;;;;;;4936070;28;194450;-68
2022/11/19 08:23:31;;;;;;;;;;;-1.50;99.90;;;;;;4993585;28;19933;-68
2022/11/19 08:25:58;;;;;;;;;;;-1.50;99.90;;;;;;4949338;28;195353;-69
2022/11/19 08:28:24;;;;;;;;;;;-1.50;99.90;;;;;;4998484;28;19933;-69
2022/11/19 08:30:50;;;;;;;;;;;-1.40;99.90;;;;;;4919276;28;226395;-69
2022/11/19 08:33:16;;;;;;;;;;;-1.40;99.90;;;;;;4956779;28;19930;-70
2022/11/19 08:35:42;;;;;;;;;;;-1.40;99.90;;;;;;4941219;28;196898;-69
2022/11/19 08:38:08;;;;;;;;;;;-1.40;99.90;;;;;;5006017;28;19926;-69
2022/11/19 08:40:34;;;;;;;;;;;-1.30;99.90;;;;;;4948564;28;204064;-69
2022/11/19 08:43:00;;;;;;;;;;;-1.30;99.90;;;;;;5007507;28;19933;-69
2022/11/19 08:45:26;;;;;;;;;;;-1.30;99.90;;;;;;4923900;28;223889;-70
2022/11/19 08:47:52;;;;;;;;;;;-1.30;99.90;;;;;;4987925;28;19989;-70
2022/11/19 08:50:19;;;;;;;;;;;-1.20;99.90;;;;;;4918961;28;215806;-70
2022/11/19 08:52:45;;;;;;;;;;;-1.20;99.90;;;;;;5017416;28;20319;-69
2022/11/19 08:55:11;;;;;;;;;;;-1.20;99.90;;;;;;4915231;28;212589;-70
2022/11/19 08:57:37;;;;;;;;;;;-1.10;99.90;;;;;;4993418;28;20399;-70
2022/11/19 09:00:03;;;;;;;;;;;-1.10;99.90;;;;;;4952292;28;217851;-69
2022/11/19 09:02:29;;;;;;;;;;;-1.10;99.90;;;;;;4976259;28;19929;-70
2022/11/19 09:04:55;;;;;;;;;;;-1.00;99.90;;;;;;4957800;28;209044;-70
2022/11/19 09:07:21;;;;;;;;;;;-1.00;99.90;;;;;;4951486;28;31113;-70
2022/11/19 09:09:47;;;;;;;;;;;-1.00;99.90;;;;;;4995023;28;19926;-70
2022/11/19 09:12:13;;;;;;;;;;;-1.00;99.90;;;;;;4949118;28;167788;-71
2022/11/19 09:14:39;;;;;;;;;;;-0.90;99.90;;;;;;4996736;28;19928;-71
2022/11/19 09:17:05;;;;;;;;;;;-0.90;99.90;;;;;;4951043;28;146630;-71
2022/11/19 09:19:31;;;;;;;;;;;-0.80;99.90;;;;;;4997758;28;19922;-71
2022/11/19 09:21:57;;;;;;;;;;;-0.80;99.90;;;;;;4957072;28;139836;-71
2022/11/19 09:24:23;;;;;;;;;;;-0.80;99.90;;;;;;5004841;28;19937;-70
2022/11/19 09:26:49;;;;;;;;;;;-0.70;99.90;;;;;;4959828;28;228592;-70
2022/11/19 09:29:14;;;;;;;;;;;-0.70;99.90;;;;;;4969049;28;19926;-70
2022/11/19 09:31:40;;;;;;;;;;;-0.70;99.90;;;;;;4959284;28;207327;-71
2022/11/19 09:34:06;;;;;;;;;;;-0.60;99.90;;;;;;5002596;28;19922;-72
2022/11/19 09:36:32;;;;;;;;;;;-0.60;99.90;;;;;;4949759;28;208969;-72
2022/11/19 09:39:00;;;;;;;;;;;-0.50;99.90;;;;;;4988562;28;19929;-71
2022/11/19 09:41:35;;;;;;;;;;;-0.60;99.90;;;;;;4960209;28;209885;-72
2022/11/19 09:44:22;;;;;;;;;;;-0.50;99.90;;;;;;4976130;28;19930;-71
2022/11/19 09:46:50;;;;;;;;;;;-0.50;99.90;;;;;;4959022;28;215988;-72
2022/11/19 09:49:20;;;;;;;;;;;-0.40;99.90;;;;;;4968286;28;20005;-71
2022/11/19 09:51:51;;;;;;;;;;;-0.40;99.90;;;;;;4921539;28;209359;-71
2022/11/19 09:54:19;;;;;;;;;;;-0.40;99.90;;;;;;4965226;28;21183;-72
2022/11/19 09:56:46;;;;;;;;;;;-0.30;99.90;;;;;;4955574;28;207701;-72
2022/11/19 09:59:18;;;;;;;;;;;-0.30;99.90;;;;;;4968897;28;19922;-72
2022/11/19 10:01:44;;;;;;;;;;;-0.30;99.90;;;;;;4966569;28;166205;-72
2022/11/19 10:04:10;;;;;;;;;;;-0.20;99.90;;;;;;4999306;28;19930;-72
2022/11/19 10:06:45;;;;;;;;;;;-0.20;99.90;;;;;;4956659;28;144552;-70
2022/11/19 10:09:17;;;;;;;;;;;-0.20;99.90;;;;;;4973334;28;19923;-70
2022/11/19 10:11:43;;;;;;;;;;;-0.10;99.90;;;;;;4954997;28;198854;-71
2022/11/19 10:14:21;;;;;;;;;;;0.00;99.90;;;;;;4967347;28;19949;-70
2022/11/19 10:16:47;;;;;;;;;;;0.00;99.90;;;;;;4970166;28;189743;-71
2022/11/19 10:19:22;;;;;;;;;;;0.00;99.90;;;;;;4999733;28;19933;-70
2022/11/19 10:21:56;;;;;;;;;;;0.10;99.90;;;;;;4967096;28;204949;-71
2022/11/19 10:24:22;;;;;;;;;;;0.10;99.90;;;;;;4965860;28;20371;-74
2022/11/19 10:26:54;;;;;;;;;;;0.10;99.90;;;;;;4951102;28;186558;-70
2022/11/19 10:29:21;;;;;;;;;;;0.10;99.90;;;;;;4996613;28;19933;-70
2022/11/19 10:31:48;;;;;;;;;;;0.10;99.90;;;;;;4936323;28;214608;-71
2022/11/19 10:34:29;;;;;;;;;;;0.20;99.90;;;;;;4960378;28;19930;-70
2022/11/19 10:37:08;;;;;;;;;;;0.20;99.90;;;;;;4957365;28;105633;-71
2022/11/19 10:39:40;;;;;;;;;;;0.30;99.90;;;;;;4994123;28;19930;-70
2022/11/19 10:42:17;;;;;;;;;;;0.30;99.90;;;;;;4948853;28;173863;-71
2022/11/19 10:44:52;;;;;;;;;;;0.30;99.90;;;;;;4992498;28;19929;-71
2022/11/19 10:47:21;;;;;;;;;;;0.40;99.90;;;;;;4967532;28;56655;-71
2022/11/19 10:49:52;;;;;;;;;;;0.40;99.90;;;;;;4979429;28;20626;-71
2022/11/19 10:52:27;;;;;;;;;;;0.40;99.90;;;;;;4961681;28;190657;-72
2022/11/19 10:54:55;;;;;;;;;;;0.50;99.90;;;;;;4964499;28;210043;-72
2022/11/19 10:57:22;;;;;;;;;;;0.50;99.90;;;;;;4971926;28;212489;-73
2022/11/19 10:59:49;;;;;;;;;;;0.60;99.90;;;;;;5000342;28;19926;-73
2022/11/19 11:02:25;;;;;;;;;;;0.60;99.90;;;;;;4951074;28;164453;-73
2022/11/19 11:05:08;;;;;;;;;;;0.70;99.90;;;;;;4972889;28;19927;-73
2022/11/19 11:07:53;;;;;;;;;;;0.70;99.90;;;;;;4954400;28;190103;-73
2022/11/19 11:10:28;;;;;;;;;;;0.80;99.90;;;;;;4937192;28;210813;-73
2022/11/19 11:15:53;;;;;;;;;;;0.90;99.90;;;;;;4936277;28;119418;-73
2022/11/19 11:18:23;;;;;;;;;;;0.90;99.90;;;;;;4982679;28;19930;-73
2022/11/19 11:20:50;;;;;;;;;;;0.90;99.90;;;;;;4956780;28;164003;-73
2022/11/19 11:23:16;;;;;;;;;;;0.90;99.90;;;;;;4972178;28;19941;-73
2022/11/19 11:25:52;;;;;;;;;;;1.00;99.90;;;;;;4943321;28;216975;-73
2022/11/19 11:28:20;;;;;;;;;;;1.00;99.90;;;;;;4995346;28;19926;-73
2022/11/19 11:30:59;;;;;;;;;;;1.00;99.90;;;;;;4945170;28;234791;-73
2022/11/19 11:33:25;;;;;;;;;;;1.10;99.90;;;;;;5013344;28;19922;-73
2022/11/19 11:35:51;;;;;;;;;;;1.10;99.90;;;;;;4939641;28;217497;-72
2022/11/19 11:38:19;;;;;;;;;;;1.10;99.90;;;;;;4996480;28;19926;-73
2022/11/19 11:41:05;;;;;;;;;;;1.10;99.90;;;;;;4948699;28;211089;-73
2022/11/19 11:43:33;;;;;;;;;;;1.10;99.90;;;;;;5000781;28;20669;-72
2022/11/19 11:46:09;;;;;;;;;;;1.10;99.90;;;;;;4952847;28;219161;-72
2022/11/19 11:48:41;;;;;;;;;;;1.10;99.90;;;;;;4972893;28;19926;-72
2022/11/19 11:51:21;;;;;;;;;;;1.20;99.90;;;;;;4976717;28;206638;-72
2022/11/19 11:54:01;;;;;;;;;;;1.20;99.90;;;;;;5019511;28;19921;-72
2022/11/19 11:56:27;;;;;;;;;;;1.30;99.90;;;;;;4969308;28;209739;-72
2022/11/19 11:59:04;;;;;;;;;;;1.30;99.90;;;;;;4983964;28;19930;-72
2022/11/19 12:01:30;;;;;;;;;;;1.60;99.90;;;;;;4968219;28;212832;-72
2022/11/19 12:03:57;;;;;;;;;;;3.60;99.90;;;;;;4978132;28;20716;-72
2022/11/19 12:06:24;;;;;;;;;;;5.20;99.90;;;;;;4948728;28;205789;-73
2022/11/19 12:08:50;;;;;;;;;;;6.40;99.90;;;;;;4983075;28;19926;-73
2022/11/19 12:11:19;;;;;;;;;;;7.50;99.90;;;;;;4966001;28;142806;-74
2022/11/19 12:13:50;;;;;;;;;;;8.30;99.90;;;;;;4980695;28;19922;-75
2022/11/19 12:16:25;;;;;;;;;;;9.10;99.90;;;;;;4970106;28;126282;-75
2022/11/19 12:18:57;;;;;;;;;;;9.70;99.80;;;;;;4981923;28;19933;-76
2022/11/19 12:21:35;;;;;;;;;;;10.40;99.90;;;;;;4969045;28;234409;-77
2022/11/19 12:24:04;;;;;;;;;;;10.90;99.40;;;;;;4983943;28;19930;-76
2022/11/19 12:26:36;;;;;;;;;;;11.40;98.40;;;;;;4971417;28;215432;-77
2022/11/19 12:29:20;;;;;;;;;;;11.90;98.60;;;;;;5009996;28;19930;-78
2022/11/19 12:31:49;;;;;;;;;;;12.20;96.60;;;;;;4940769;28;222517;-77
2022/11/19 12:34:34;;;;;;;;;;;12.30;96.70;;;;;;4959695;28;19954;-75
2022/11/19 12:37:17;;;;;;;;;;;12.70;97.00;;;;;;4977994;28;145799;-77
2022/11/19 12:39:52;;;;;;;;;;;13.00;95.60;;;;;;4982682;28;19956;-76
2022/11/19 12:42:36;;;;;;;;;;;13.20;96.30;;;;;;4982485;28;186143;-76
2022/11/19 12:45:13;;;;;;;;;;;13.60;95.80;;;;;;4974457;28;247010;-74
2022/11/19 12:47:52;;;;;;;;;;;13.70;94.60;;;;;;5016445;28;19922;-75
2022/11/19 12:50:28;;;;;;;;;;;13.80;94.40;;;;;;4934231;28;213603;-75
2022/11/19 12:53:00;;;;;;;;;;;14.00;94.50;;;;;;4971407;28;20335;-75
2022/11/19 12:55:26;;;;;;;;;;;14.60;95.70;;;;;;4935597;28;167010;-80
2022/11/19 12:58:12;;;;;;;;;;;15.40;96.20;;;;;;5004467;28;19926;-77
2022/11/19 13:00:42;;;;;;;;;;;16.00;93.60;;;;;;4941764;28;210718;-77
2022/11/19 13:03:13;;;;;;;;;;;16.00;92.90;;;;;;4997464;28;19922;-76
2022/11/19 13:05:43;;;;;;;;;;;16.30;93.60;;;;;;4935321;28;211691;-77
2022/11/19 13:08:34;;;;;;;;;;;16.50;92.50;;;;;;5019181;28;19922;-76
2022/11/19 13:11:23;;;;;;;;;;;16.30;91.40;;;;;;4957279;28;222407;-76
2022/11/19 13:13:59;;;;;;;;;;;16.40;91.10;;;;;;4988136;28;19925;-76
2022/11/19 13:16:27;;;;;;;;;;;16.30;90.60;;;;;;4962067;28;208388;-76
2022/11/19 13:18:59;;;;;;;;;;;16.30;91.20;;;;;;4968108;28;20544;-76
2022/11/19 13:21:48;;;;;;;;;;;16.30;89.40;;;;;;4963626;28;114037;-75
2022/11/19 13:24:32;;;;;;;;;;;16.70;90.70;;;;;;4953048;28;19926;-76
2022/11/19 13:27:05;;;;;;;;;;;17.10;91.40;;;;;;4915433;28;209476;-76
2022/11/19 13:29:34;;;;;;;;;;;17.40;90.80;;;;;;4940939;28;20298;-76
2022/11/19 13:32:09;;;;;;;;;;;17.20;87.30;;;;;;4918955;28;210343;-75
2022/11/19 13:34:46;;;;;;;;;;;16.90;86.20;;;;;;4971771;28;19927;-76
2022/11/19 13:37:15;;;;;;;;;;;17.00;89.60;;;;;;4924410;28;206294;-75
2022/11/19 13:40:11;;;;;;;;;;;16.70;84.20;;;;;;4934527;29;20455;-75
2022/11/19 13:45:27;;;;;;;;;;;16.50;83.80;;;;;;4868718;29;180250;-76
2022/11/19 13:47:58;;;;;;;;;;;16.40;87.60;;;;;;4907766;29;19927;-75
2022/11/19 13:50:29;;;;;;;;;;;16.40;84.20;;;;;;4869667;29;177334;-75
2022/11/19 13:53:07;;;;;;;;;;;16.50;85.90;;;;;;4913767;29;20305;-76
2022/11/19 13:55:35;;;;;;;;;;;16.80;85.00;;;;;;4862507;29;210073;-75
2022/11/19 13:58:10;;;;;;;;;;;16.80;84.80;;;;;;4907799;29;19935;-75
2022/11/19 14:00:36;;;;;;;;;;;16.80;84.70;;;;;;4854178;29;209565;-75
2022/11/19 14:03:02;;;;;;;;;;;16.70;85.10;;;;;;4932664;29;20250;-75
2022/11/19 14:05:31;;;;;;;;;;;16.60;82.40;;;;;;4873553;28;99304;-76
2022/11/19 14:08:16;;;;;;;;;;;16.70;83.90;;;;;;4921906;29;19938;-75
2022/11/19 14:10:47;;;;;;;;;;;16.60;82.70;;;;;;4874401;28;139265;-75
2022/11/19 14:13:13;;;;;;;;;;;16.20;82.30;;;;;;4923699;29;19927;-75
2022/11/19 14:27:28;;;;;;;;;;;12.60;85.60;;;;;;4980507;28;180769;-74
2022/11/19 14:29:57;;;;;;;;;;;10.90;86.70;;;;;;4999011;28;211949;-74
2022/11/19 14:32:37;;;;;;;;;;;9.70;88.00;;;;;;4981165;28;199853;-74
2022/11/19 14:35:04;;;;;;;;;;;8.70;90.10;;;;;;4989856;28;215050;-75
2022/11/19 14:37:33;;;;;;;;;;;7.80;91.30;;;;;;4979887;28;19931;-74
2022/11/19 14:40:21;;;;;;;;;;;7.10;92.00;;;;;;4955385;28;210308;-74
2022/11/19 14:44:07;;;;;;;;;;;6.60;93.20;;;;;;4984208;28;20153;-74
2022/11/19 14:46:04;;;;;;;;;;;6.10;94.40;;;;;;4928990;28;206465;-72
2022/11/19 14:48:30;;;;;;;;;;;5.70;95.70;;;;;;4992781;28;19937;-73
2022/11/19 14:50:57;;;;;;;;;;;5.40;96.40;;;;;;4938418;28;228287;-73
2022/11/19 14:53:24;;;;;;;;;;;5.10;97.20;;;;;;4997392;28;19929;-74
2022/11/19 14:55:52;;;;;;;;;;;4.80;97.70;;;;;;4975758;28;181757;-74
2022/11/19 14:58:22;;;;;;;;;;;4.60;98.40;;;;;;4974037;28;19926;-74
2022/11/19 15:00:49;;;;;;;;;;;4.50;99.00;;;;;;4951328;28;211734;-73
2022/11/19 15:03:26;;;;;;;;;;;4.40;99.40;;;;;;5012522;28;19933;-73